createdAt,value
2023-04-23T00:00:13.708Z,6.70
2023-04-23T00:03:10.330Z,6.80
2023-04-23T00:05:40.053Z,7.00
2023-04-23T00:08:11.836Z,8.00
2023-04-23T00:10:41.125Z,6.72
2023-04-23T00:13:10.182Z,7.55
2023-04-23T00:15:39.947Z,7.40
2023-04-23T00:18:10.197Z,7.82
2023-04-23T00:20:39.101Z,6.63
2023-04-23T00:23:07.578Z,7.18
2023-04-23T00:25:36.838Z,6.63
2023-04-23T00:28:05.942Z,5.97
2023-04-23T00:30:35.348Z,6.30
2023-04-23T00:33:04.673Z,5.65
2023-04-23T00:35:35.505Z,5.38
2023-04-23T00:38:04.094Z,4.88
2023-04-23T00:40:33.210Z,5.67
2023-04-23T00:43:02.563Z,5.70
2023-04-23T00:45:31.599Z,5.45
2023-04-23T00:48:00.413Z,5.43
2023-04-23T00:50:29.920Z,5.38
2023-04-23T00:53:00.327Z,5.82
2023-04-23T00:55:29.690Z,5.38
2023-04-23T00:57:59.090Z,5.70
2023-04-23T01:00:28.543Z,5.57
2023-04-23T01:02:58.433Z,5.15
2023-04-23T01:05:29.035Z,5.20
2023-04-23T01:10:28.662Z,4.88
2023-04-23T01:15:25.736Z,5.07
2023-04-23T01:17:54.333Z,5.40
2023-04-23T01:20:23.495Z,5.38
2023-04-23T01:22:53.944Z,5.32
2023-04-23T01:25:23.186Z,5.80
2023-04-23T01:27:52.166Z,6.22
2023-04-23T01:30:22.097Z,5.68
2023-04-23T01:32:51.808Z,5.88
2023-04-23T01:35:21.515Z,5.60
2023-04-23T01:37:53.101Z,6.00
2023-04-23T01:40:23.626Z,6.30
2023-04-23T01:42:52.508Z,5.25
2023-04-23T01:45:22.288Z,6.15
2023-04-23T01:47:50.825Z,6.03
2023-04-23T01:50:21.907Z,5.53
2023-04-23T01:52:50.520Z,5.72
2023-04-23T01:55:20.649Z,5.03
2023-04-23T01:57:51.282Z,5.25
2023-04-23T02:00:20.804Z,5.30
2023-04-23T02:02:50.822Z,4.75
2023-04-23T02:05:21.165Z,5.03
2023-04-23T02:07:51.285Z,5.20
2023-04-23T02:10:20.819Z,5.03
2023-04-23T02:12:50.939Z,5.75
2023-04-23T02:15:21.565Z,5.32
2023-04-23T02:17:52.306Z,5.78
2023-04-23T02:20:22.711Z,5.10
2023-04-23T02:22:52.144Z,5.32
2023-04-23T02:25:22.481Z,5.45
2023-04-23T02:27:52.525Z,5.70
2023-04-23T02:30:22.964Z,6.18
2023-04-23T02:32:51.696Z,5.75
2023-04-23T02:35:21.350Z,6.00
2023-04-23T02:37:49.817Z,6.10
2023-04-23T02:40:18.882Z,6.32
2023-04-23T02:42:47.632Z,6.47
2023-04-23T02:45:17.960Z,6.07
2023-04-23T02:47:46.517Z,6.00
2023-04-23T02:50:15.472Z,6.78
2023-04-23T02:52:44.205Z,6.00
2023-04-23T02:55:12.992Z,6.95
2023-04-23T02:57:41.660Z,6.80
2023-04-23T03:00:13.629Z,6.50
2023-04-23T03:02:45.864Z,6.68
2023-04-23T03:05:16.096Z,6.85
2023-04-23T03:07:44.862Z,6.60
2023-04-23T03:10:13.761Z,6.25
2023-04-23T03:12:42.457Z,7.15
2023-04-23T03:15:12.248Z,6.45
2023-04-23T03:20:13.733Z,6.80
2023-04-23T03:22:42.457Z,6.47
2023-04-23T03:25:12.238Z,7.45
2023-04-23T03:27:41.442Z,7.30
2023-04-23T03:30:11.129Z,7.47
2023-04-23T03:32:40.027Z,7.10
2023-04-23T03:35:11.954Z,6.88
2023-04-23T03:37:44.871Z,7.55
2023-04-23T03:40:14.747Z,7.38
2023-04-23T03:42:44.920Z,6.93
2023-04-23T03:45:16.889Z,7.30
2023-04-23T03:47:46.493Z,7.18
2023-04-23T03:50:18.621Z,8.25
2023-04-23T03:52:54.230Z,8.07
2023-04-23T03:55:43.724Z,8.98
2023-04-23T03:58:13.020Z,8.13
2023-04-23T04:00:45.837Z,8.48
2023-04-23T04:03:14.654Z,7.78
2023-04-23T04:05:45.264Z,9.27
2023-04-23T04:08:13.805Z,9.07
2023-04-23T04:10:42.728Z,8.95
2023-04-23T04:13:11.167Z,9.10
2023-04-23T04:15:39.876Z,8.95
2023-04-23T04:18:08.316Z,9.57
2023-04-23T04:20:37.545Z,8.90
2023-04-23T04:23:08.323Z,8.98
2023-04-23T04:25:40.156Z,9.15
2023-04-23T04:28:09.458Z,10.07
2023-04-23T04:30:38.530Z,10.05
2023-04-23T04:33:07.212Z,10.15
2023-04-23T04:35:36.491Z,9.25
2023-04-23T04:38:05.178Z,9.43
2023-04-23T04:40:35.983Z,10.25
2023-04-23T04:43:06.413Z,9.43
2023-04-23T04:45:35.528Z,9.50
2023-04-23T04:48:03.920Z,9.45
2023-04-23T04:50:32.551Z,9.35
2023-04-23T04:53:01.012Z,9.27
2023-04-23T04:55:29.680Z,9.63
2023-04-23T04:57:59.733Z,9.23
2023-04-23T05:00:30.172Z,8.80
2023-04-23T05:02:59.988Z,9.73
2023-04-23T05:05:29.527Z,9.20
2023-04-23T05:07:59.419Z,9.65
2023-04-23T05:10:28.644Z,9.57
2023-04-23T05:12:59.766Z,9.68
2023-04-23T05:15:28.886Z,9.05
2023-04-23T05:17:57.605Z,9.55
2023-04-23T05:20:27.336Z,9.07
2023-04-23T05:22:55.940Z,9.45
2023-04-23T05:25:24.866Z,10.02
2023-04-23T05:27:53.622Z,9.15
2023-04-23T05:30:23.664Z,9.68
2023-04-23T05:32:52.235Z,9.75
2023-04-23T05:35:21.410Z,8.70
2023-04-23T05:37:50.148Z,9.45
2023-04-23T05:40:18.989Z,9.02
2023-04-23T05:42:47.656Z,8.98
2023-04-23T05:45:16.374Z,10.15
2023-04-23T05:47:46.485Z,9.35
2023-04-23T05:50:15.472Z,9.63
2023-04-23T05:52:44.403Z,10.32
2023-04-23T05:55:15.779Z,9.52
2023-04-23T05:57:44.371Z,9.57
2023-04-23T06:00:14.024Z,8.98
2023-04-23T06:02:43.316Z,9.80
2023-04-23T06:07:43.821Z,9.50
2023-04-23T06:10:13.279Z,9.52
2023-04-23T06:12:42.691Z,9.73
2023-04-23T06:17:40.396Z,9.90
2023-04-23T06:20:11.988Z,9.70
2023-04-23T06:22:42.229Z,9.75
2023-04-23T06:25:11.251Z,9.52
2023-04-23T06:27:39.889Z,9.57
2023-04-23T06:30:16.212Z,9.43
2023-04-23T06:32:46.068Z,9.63
2023-04-23T06:35:15.127Z,9.83
2023-04-23T06:37:44.829Z,10.15
2023-04-23T06:40:13.974Z,9.35
2023-04-23T06:42:42.832Z,9.53
2023-04-23T06:45:33.422Z,9.40
2023-04-23T06:48:02.105Z,9.80
2023-04-23T06:50:31.212Z,10.10
2023-04-23T06:53:01.213Z,10.50
2023-04-23T06:55:30.240Z,10.32
2023-04-23T06:57:58.991Z,10.20
2023-04-23T07:00:27.852Z,10.38
2023-04-23T07:02:57.124Z,10.55
2023-04-23T07:05:26.187Z,10.10
2023-04-23T07:07:54.735Z,11.05
2023-04-23T07:10:25.309Z,10.00
2023-04-23T07:12:53.732Z,10.18
2023-04-23T07:15:23.315Z,10.35
2023-04-23T07:17:51.865Z,10.90
2023-04-23T07:20:21.265Z,10.45
2023-04-23T07:22:49.915Z,11.10
2023-04-23T07:25:18.570Z,9.98
2023-04-23T07:27:48.644Z,10.40
2023-04-23T07:30:17.658Z,10.98
2023-04-23T07:32:46.151Z,10.98
2023-04-23T07:35:15.158Z,10.63
2023-04-23T07:37:43.790Z,11.00
2023-04-23T07:40:13.204Z,10.02
2023-04-23T07:42:41.808Z,10.65
2023-04-23T07:45:13.280Z,10.68
2023-04-23T07:47:42.281Z,10.15
2023-04-23T07:50:11.726Z,10.50
2023-04-23T07:52:40.275Z,9.80
2023-04-23T07:55:10.622Z,9.88
2023-04-23T07:57:38.971Z,9.90
2023-04-23T08:00:11.508Z,10.13
2023-04-23T08:02:44.140Z,9.77
2023-04-23T08:05:14.203Z,10.75
2023-04-23T08:07:43.055Z,10.48
2023-04-23T08:10:12.116Z,9.70
2023-04-23T08:12:41.116Z,10.10
2023-04-23T08:15:11.366Z,10.85
2023-04-23T08:17:44.493Z,10.75
2023-04-23T08:20:13.672Z,10.15
2023-04-23T08:22:41.974Z,10.57
2023-04-23T08:25:12.912Z,9.87
2023-04-23T08:27:41.452Z,9.77
2023-04-23T08:30:11.258Z,10.07
2023-04-23T08:32:41.161Z,9.80
2023-04-23T08:35:12.909Z,10.13
2023-04-23T08:37:41.338Z,9.05
2023-04-23T08:40:11.242Z,9.57
2023-04-23T08:45:11.357Z,9.30
2023-04-23T08:50:16.508Z,8.77
2023-04-23T08:52:49.073Z,9.27
2023-04-23T08:55:18.984Z,9.23
2023-04-23T09:00:18.445Z,8.90
2023-04-23T09:02:48.582Z,9.40
2023-04-23T09:05:18.894Z,9.48
2023-04-23T09:07:48.580Z,9.65
2023-04-23T09:10:18.600Z,9.90
2023-04-23T09:12:48.658Z,11.20
2023-04-23T09:15:18.840Z,11.45
2023-04-23T09:17:50.028Z,9.73
2023-04-23T09:20:20.443Z,9.65
2023-04-23T09:22:50.815Z,9.43
2023-04-23T09:25:21.394Z,10.18
2023-04-23T09:27:52.419Z,10.13
2023-04-23T09:30:22.025Z,9.00
2023-04-23T09:32:51.080Z,9.23
2023-04-23T09:37:52.547Z,8.65
2023-04-23T09:40:24.020Z,8.88
2023-04-23T09:42:54.718Z,8.20
2023-04-23T09:45:25.220Z,8.70
2023-04-23T09:47:56.529Z,7.97
2023-04-23T09:50:36.011Z,7.43
2023-04-23T09:53:04.842Z,9.38
2023-04-23T09:55:38.720Z,8.25
2023-04-23T09:58:08.755Z,8.65
2023-04-23T10:00:39.055Z,8.18
2023-04-23T10:03:09.081Z,8.52
2023-04-23T10:08:16.387Z,7.68
2023-04-23T10:11:00.029Z,8.43
2023-04-23T10:13:36.424Z,8.35
2023-04-23T10:16:20.729Z,8.30
2023-04-23T10:18:55.448Z,7.65
2023-04-23T10:21:36.668Z,8.02
2023-04-23T10:24:15.950Z,8.18
2023-04-23T10:26:46.977Z,7.70
2023-04-23T10:29:17.403Z,7.90
2023-04-23T10:31:47.831Z,8.18
2023-04-23T10:34:17.043Z,8.05
2023-04-23T10:36:47.433Z,7.70
2023-04-23T10:39:24.091Z,7.88
2023-04-23T10:42:00.234Z,7.65
2023-04-23T10:44:56.763Z,8.23
2023-04-23T10:47:23.182Z,7.80
2023-04-23T10:49:53.016Z,7.63
2023-04-23T10:52:25.810Z,7.45
2023-04-23T10:55:00.138Z,7.38
2023-04-23T10:57:29.394Z,7.43
2023-04-23T10:59:59.101Z,7.63
2023-04-23T11:02:27.970Z,8.15
2023-04-23T11:04:58.215Z,7.07
2023-04-23T11:07:32.643Z,7.75
2023-04-23T11:10:01.989Z,7.30
2023-04-23T11:12:35.008Z,6.63
2023-04-23T11:15:12.486Z,7.20
2023-04-23T11:18:01.770Z,7.03
2023-04-23T11:20:30.497Z,7.63
2023-04-23T11:23:01.097Z,6.80
2023-04-23T11:25:30.654Z,6.13
2023-04-23T11:27:59.866Z,6.65
2023-04-23T11:30:30.604Z,6.72
2023-04-23T11:33:01.768Z,5.43
2023-04-23T11:35:37.938Z,5.50
2023-04-23T11:38:11.248Z,5.97
2023-04-23T11:40:42.931Z,5.88
2023-04-23T11:43:12.088Z,5.60
2023-04-23T11:45:40.477Z,5.15
2023-04-23T11:48:09.448Z,5.05
2023-04-23T11:50:39.152Z,5.40
2023-04-23T11:53:09.056Z,5.50
2023-04-23T11:55:44.034Z,5.25
2023-04-23T11:58:12.892Z,4.90
2023-04-23T12:00:41.404Z,5.07
2023-04-23T12:03:10.225Z,5.30
2023-04-23T12:05:46.341Z,5.22
2023-04-23T12:08:18.189Z,5.30
2023-04-23T12:10:50.270Z,5.32
2023-04-23T12:13:20.464Z,5.13
2023-04-23T12:15:50.254Z,5.05
2023-04-23T12:18:20.023Z,5.00
2023-04-23T12:20:48.632Z,5.30
2023-04-23T12:23:17.300Z,5.82
2023-04-23T12:25:47.427Z,6.10
2023-04-23T12:28:16.114Z,6.10
2023-04-23T12:30:45.607Z,5.87
2023-04-23T12:33:14.909Z,6.22
2023-04-23T12:35:45.210Z,6.13
2023-04-23T12:38:24.938Z,5.90
2023-04-23T12:40:56.013Z,6.53
2023-04-23T12:43:25.600Z,5.93
2023-04-23T12:45:54.064Z,5.80
2023-04-23T12:48:22.764Z,5.75
2023-04-23T12:50:51.123Z,5.50
2023-04-23T12:53:19.890Z,5.63
2023-04-23T12:55:49.153Z,5.47
2023-04-23T12:58:19.529Z,5.70
2023-04-23T13:00:48.150Z,5.75
2023-04-23T13:03:19.448Z,5.88
2023-04-23T13:05:48.188Z,6.03
2023-04-23T13:08:17.388Z,6.25
2023-04-23T13:10:46.147Z,6.20
2023-04-23T13:13:14.833Z,6.15
2023-04-23T13:15:45.120Z,5.47
2023-04-23T13:18:13.807Z,5.57
2023-04-23T13:20:43.332Z,5.63
2023-04-23T13:23:13.354Z,5.68
2023-04-23T13:25:41.947Z,5.88
2023-04-23T13:28:10.638Z,5.10
2023-04-23T13:30:39.317Z,5.43
2023-04-23T13:33:09.414Z,5.68
2023-04-23T13:35:38.301Z,5.80
2023-04-23T13:40:35.669Z,5.20
2023-04-23T13:43:04.479Z,5.22
2023-04-23T13:45:33.087Z,5.35
2023-04-23T13:48:02.592Z,5.90
2023-04-23T13:53:01.536Z,5.32
2023-04-23T13:55:30.039Z,5.20
2023-04-23T13:57:59.176Z,5.22
2023-04-23T14:00:29.457Z,5.50
2023-04-23T14:02:58.344Z,5.75
2023-04-23T14:05:27.062Z,5.35
2023-04-23T14:07:57.362Z,5.05
2023-04-23T14:10:25.816Z,5.75
2023-04-23T14:12:55.147Z,5.40
2023-04-23T14:17:53.292Z,5.25
2023-04-23T14:20:22.005Z,5.53
2023-04-23T14:22:56.433Z,5.25
2023-04-23T14:25:35.699Z,5.22
2023-04-23T14:28:23.610Z,5.22
2023-04-23T14:30:51.969Z,5.40
2023-04-23T14:33:20.599Z,5.13
2023-04-23T14:35:49.070Z,4.88
2023-04-23T14:38:17.998Z,5.43
2023-04-23T14:40:47.942Z,5.50
2023-04-23T14:43:17.124Z,5.80
2023-04-23T14:45:47.312Z,5.10
2023-04-23T14:48:16.080Z,5.50
2023-04-23T14:50:44.437Z,4.93
2023-04-23T14:53:13.391Z,5.95
2023-04-23T14:55:43.431Z,5.68
2023-04-23T14:58:13.588Z,5.30
2023-04-23T15:00:42.450Z,5.20
2023-04-23T15:03:11.948Z,4.80
2023-04-23T15:08:10.427Z,5.63
2023-04-23T15:10:38.848Z,6.05
2023-04-23T15:13:09.658Z,5.53
2023-04-23T15:15:45.323Z,7.15
2023-04-23T15:18:15.524Z,5.82
2023-04-23T15:20:44.529Z,5.07
2023-04-23T15:25:41.719Z,5.22
2023-04-23T15:28:10.466Z,4.68
2023-04-23T15:30:41.203Z,5.28
2023-04-23T15:33:09.943Z,4.65
2023-04-23T15:35:38.307Z,4.88
2023-04-23T15:38:07.035Z,4.90
2023-04-23T15:40:42.198Z,5.00
2023-04-23T15:43:13.365Z,4.70
2023-04-23T15:45:46.106Z,5.05
2023-04-23T15:48:15.190Z,4.60
2023-04-23T15:50:44.105Z,5.38
2023-04-23T15:53:13.584Z,4.70
2023-04-23T15:55:42.154Z,4.93
2023-04-23T15:58:10.940Z,4.38
2023-04-23T16:00:39.285Z,4.80
2023-04-23T16:03:09.553Z,4.47
2023-04-23T16:05:38.016Z,4.28
2023-04-23T16:08:06.653Z,4.60
2023-04-23T16:10:35.207Z,4.60
2023-04-23T16:13:03.973Z,4.57
2023-04-23T16:15:32.789Z,4.13
2023-04-23T16:18:02.330Z,4.40
2023-04-23T16:20:33.431Z,4.43
2023-04-23T16:23:04.557Z,4.60
2023-04-23T16:25:33.166Z,4.70
2023-04-23T16:28:02.476Z,5.20
2023-04-23T16:30:31.212Z,4.85
2023-04-23T16:33:00.030Z,4.97
2023-04-23T16:35:28.541Z,4.73
2023-04-23T16:37:58.703Z,4.57
2023-04-23T16:40:27.930Z,5.28
2023-04-23T16:42:56.586Z,5.07
2023-04-23T16:45:24.931Z,5.15
2023-04-23T16:47:53.914Z,7.22
2023-04-23T16:50:22.415Z,7.85
2023-04-23T16:52:51.399Z,8.40
2023-04-23T16:55:21.616Z,8.35
2023-04-23T16:57:50.699Z,8.88
2023-04-23T17:00:19.731Z,12.37
2023-04-23T17:02:49.194Z,12.18
2023-04-23T17:05:19.790Z,10.40
2023-04-23T17:07:48.383Z,12.20
2023-04-23T17:10:17.467Z,11.23
2023-04-23T17:15:16.552Z,11.05
2023-04-23T17:17:45.616Z,11.55
2023-04-23T17:20:14.089Z,12.50
2023-04-23T17:22:43.067Z,11.57
2023-04-23T17:25:11.432Z,11.50
2023-04-23T17:27:40.175Z,11.93
2023-04-23T17:30:11.533Z,11.88
2023-04-23T17:32:40.871Z,11.77
2023-04-23T17:35:10.986Z,12.27
2023-04-23T17:37:41.022Z,11.73
2023-04-23T17:40:11.215Z,12.05
2023-04-23T17:42:40.082Z,11.60
2023-04-23T17:45:11.965Z,12.00
2023-04-23T17:47:41.119Z,12.30
2023-04-23T17:50:11.878Z,12.00
2023-04-23T17:52:41.649Z,12.07
2023-04-23T17:55:10.246Z,12.02
2023-04-23T17:57:39.293Z,12.13
2023-04-23T18:00:12.319Z,12.40
2023-04-23T18:02:41.831Z,12.23
2023-04-23T18:05:11.666Z,11.95
2023-04-23T18:07:41.335Z,12.73
2023-04-23T18:10:12.252Z,12.98
2023-04-23T18:12:41.559Z,13.32
2023-04-23T18:15:12.643Z,12.80
2023-04-23T18:17:41.509Z,12.88
2023-04-23T18:20:10.906Z,13.63
2023-04-23T18:25:11.570Z,12.25
2023-04-23T18:27:41.710Z,12.68
2023-04-23T18:30:12.360Z,13.65
2023-04-23T18:32:44.635Z,13.82
2023-04-23T18:35:13.508Z,13.07
2023-04-23T18:37:45.168Z,13.90
2023-04-23T18:40:13.669Z,13.40
2023-04-23T18:42:42.562Z,13.50
2023-04-23T18:45:12.922Z,13.43
2023-04-23T18:47:46.186Z,14.00
2023-04-23T18:50:37.652Z,13.55
2023-04-23T18:53:06.578Z,13.57
2023-04-23T18:55:35.018Z,13.85
2023-04-23T18:58:03.826Z,13.53
2023-04-23T19:00:33.917Z,14.10
2023-04-23T19:03:09.141Z,13.40
2023-04-23T19:05:44.415Z,13.07
2023-04-23T19:08:13.731Z,13.35
2023-04-23T19:10:43.376Z,14.07
2023-04-23T19:13:12.544Z,13.57
2023-04-23T19:15:42.372Z,14.63
2023-04-23T19:18:11.411Z,14.25
2023-04-23T19:20:40.135Z,15.70
2023-04-23T19:23:09.285Z,15.20
2023-04-23T19:25:38.064Z,14.93
2023-04-23T19:28:08.005Z,15.38
2023-04-23T19:30:38.036Z,15.27
2023-04-23T19:33:08.571Z,14.85
2023-04-23T19:35:39.494Z,15.88
2023-04-23T19:38:09.499Z,16.27
2023-04-23T19:40:38.074Z,16.45
2023-04-23T19:43:07.587Z,15.20
2023-04-23T19:45:36.058Z,16.92
2023-04-23T19:48:07.543Z,16.38
2023-04-23T19:50:37.436Z,16.52
2023-04-23T19:53:07.025Z,16.67
2023-04-23T19:55:36.022Z,16.33
2023-04-23T19:58:06.626Z,15.82
2023-04-23T20:00:40.352Z,16.02
2023-04-23T20:03:10.581Z,22.40
2023-04-23T20:05:42.493Z,21.15
2023-04-23T20:08:15.547Z,17.38
2023-04-23T20:10:44.462Z,17.30
2023-04-23T20:13:13.184Z,21.15
2023-04-23T20:15:42.885Z,21.23
2023-04-23T20:18:12.222Z,17.27
2023-04-23T20:20:42.937Z,15.90
2023-04-23T20:23:11.997Z,16.05
2023-04-23T20:25:40.618Z,15.90
2023-04-23T20:28:11.493Z,16.02
2023-04-23T20:30:40.983Z,16.15
2023-04-23T20:33:10.587Z,16.02
2023-04-23T20:35:42.032Z,15.88
2023-04-23T20:38:11.006Z,16.35
2023-04-23T20:40:39.923Z,16.52
2023-04-23T20:43:09.803Z,16.52
2023-04-23T20:45:38.489Z,15.85
2023-04-23T20:48:08.473Z,17.10
2023-04-23T20:50:36.899Z,16.48
2023-04-23T20:53:07.025Z,16.42
2023-04-23T20:58:03.779Z,16.30
2023-04-23T21:00:32.883Z,16.60
2023-04-23T21:03:02.139Z,17.27
2023-04-23T21:05:31.476Z,15.93
2023-04-23T21:08:00.595Z,15.77
2023-04-23T21:10:30.486Z,17.13
2023-04-23T21:13:00.043Z,21.45
2023-04-23T21:15:29.783Z,19.63
2023-04-23T21:17:58.530Z,17.38
2023-04-23T21:20:27.020Z,16.83
2023-04-23T21:22:56.059Z,16.58
2023-04-23T21:25:24.640Z,16.30
2023-04-23T21:27:55.464Z,16.53
2023-04-23T21:30:31.029Z,16.67
2023-04-23T21:32:59.866Z,16.70
2023-04-23T21:35:28.548Z,18.00
2023-04-23T21:37:58.334Z,20.50
2023-04-23T21:40:26.799Z,21.58
2023-04-23T21:42:56.994Z,19.87
2023-04-23T21:47:56.935Z,20.17
2023-04-23T21:50:27.571Z,19.65
2023-04-23T21:52:58.465Z,20.17
2023-04-23T21:55:28.375Z,19.95
2023-04-23T21:58:09.791Z,20.90
2023-04-23T22:00:45.234Z,20.40
2023-04-23T22:03:19.075Z,20.08
2023-04-23T22:06:01.409Z,19.92
2023-04-23T22:08:33.641Z,19.02
2023-04-23T22:11:02.094Z,19.73
2023-04-23T22:13:32.621Z,20.17
2023-04-23T22:16:02.984Z,20.48
2023-04-23T22:18:35.711Z,21.25
2023-04-23T22:21:04.056Z,20.20
2023-04-23T22:23:32.664Z,21.25
2023-04-23T22:26:01.154Z,20.77
2023-04-23T22:28:31.378Z,21.70
2023-04-23T22:33:29.576Z,20.43
2023-04-23T22:35:59.951Z,19.45
2023-04-23T22:38:28.952Z,19.38
2023-04-23T22:40:57.629Z,19.67
2023-04-23T22:43:26.377Z,19.77
2023-04-23T22:45:56.649Z,18.60
2023-04-23T22:48:25.979Z,19.88
2023-04-23T22:50:54.314Z,19.58
2023-04-23T22:53:23.319Z,19.45
2023-04-23T22:55:52.378Z,19.23
2023-04-23T22:58:21.485Z,18.45
2023-04-23T23:00:49.798Z,18.80
2023-04-23T23:03:20.181Z,18.58
2023-04-23T23:05:49.141Z,18.23
2023-04-23T23:08:17.858Z,18.30
2023-04-23T23:10:46.289Z,17.88
2023-04-23T23:13:15.298Z,19.20
2023-04-23T23:15:43.913Z,18.70
2023-04-23T23:18:15.813Z,19.23
2023-04-23T23:20:45.714Z,18.90
2023-04-23T23:23:14.939Z,19.27
2023-04-23T23:25:43.493Z,18.45
2023-04-23T23:28:12.204Z,19.08
2023-04-23T23:30:40.915Z,18.88
2023-04-23T23:33:09.845Z,19.95
2023-04-23T23:35:38.259Z,19.85
2023-04-23T23:38:08.341Z,19.63
2023-04-23T23:40:36.683Z,19.08
2023-04-23T23:43:06.012Z,18.80
2023-04-23T23:45:34.542Z,18.77
2023-04-23T23:48:05.775Z,18.70
2023-04-23T23:50:34.221Z,18.88
2023-04-23T23:53:03.531Z,19.40
2023-04-23T23:55:33.233Z,20.23
2023-04-23T23:58:02.535Z,18.90
